Time;durP1;ratioP1;P1;durP2;ratioP2;P2;SDS_P1;SDS_P2;PMS_P1;PMS_P2;Temp;Humidity;BMP_temperature;BMP_pressure;BME280_temperature;BME280_humidity;BME280_pressure;Samples;Min_cycle;Max_cycle;Signal;HPM_P1;HPM_P2
2023/12/26 05:02:20;;;;;;;0.90;0.80;;;11.40;97.30;;;;;;5228621;23;20482;-87
2023/12/26 05:04:46;;;;;;;0.90;0.80;;;11.40;97.30;;;;;;5017622;28;20466;-86
2023/12/26 05:07:12;;;;;;;0.90;0.80;;;11.40;97.30;;;;;;5008761;28;20216;-88
2023/12/26 05:09:38;;;;;;;0.90;0.80;;;11.40;97.30;;;;;;5006488;28;20436;-86
2023/12/26 05:12:04;;;;;;;0.80;0.70;;;11.40;97.30;;;;;;5020421;28;20201;-87
2023/12/26 05:14:30;;;;;;;0.80;0.70;;;11.40;97.30;;;;;;5015675;28;20184;-86
2023/12/26 05:16:55;;;;;;;0.80;0.70;;;11.40;97.30;;;;;;5012422;28;20428;-87
2023/12/26 05:19:21;;;;;;;0.80;0.70;;;11.40;97.30;;;;;;5017923;28;20220;-86
2023/12/26 05:21:47;;;;;;;0.90;0.80;;;11.40;97.30;;;;;;5017039;28;20278;-87
2023/12/26 05:24:12;;;;;;;0.90;0.80;;;11.40;97.30;;;;;;5009969;28;20236;-86
2023/12/26 05:26:42;;;;;;;0.90;0.80;;;11.40;97.30;;;;;;5017196;28;20177;-86
2023/12/26 05:29:11;;;;;;;1.10;1.00;;;11.40;97.30;;;;;;5012707;28;20181;-88
2023/12/26 05:31:40;;;;;;;0.80;0.70;;;11.40;97.30;;;;;;5008246;28;20447;-86
2023/12/26 05:34:09;;;;;;;1.00;0.90;;;11.40;97.30;;;;;;5014530;28;20809;-88
2023/12/26 05:36:35;;;;;;;0.80;0.70;;;11.40;97.30;;;;;;5016367;28;20509;-85
2023/12/26 05:39:01;;;;;;;0.90;0.80;;;11.40;97.30;;;;;;5017944;28;20530;-88
2023/12/26 05:41:26;;;;;;;0.90;0.80;;;11.40;97.30;;;;;;5017616;28;20539;-87
2023/12/26 05:43:52;;;;;;;0.90;0.80;;;11.40;97.30;;;;;;5011047;28;20228;-87
2023/12/26 05:46:20;;;;;;;0.90;0.80;;;11.40;97.30;;;;;;5014201;28;20182;-89
2023/12/26 05:48:45;;;;;;;0.90;0.80;;;11.30;97.30;;;;;;5013320;28;20191;-90
2023/12/26 05:51:11;;;;;;;0.90;0.80;;;11.40;97.30;;;;;;5006180;28;20539;-88
2023/12/26 05:53:37;;;;;;;0.90;0.80;;;11.40;97.30;;;;;;5013573;28;20184;-89
2023/12/26 05:56:03;;;;;;;0.90;0.80;;;11.40;97.30;;;;;;5022477;28;20185;-87
2023/12/26 05:58:28;;;;;;;0.90;0.80;;;11.30;97.30;;;;;;5011508;28;20189;-87
2023/12/26 06:00:54;;;;;;;0.80;0.70;;;11.30;97.30;;;;;;5009386;28;20476;-86
2023/12/26 06:03:20;;;;;;;0.90;0.80;;;11.30;97.30;;;;;;5025248;28;20239;-87
2023/12/26 06:05:47;;;;;;;0.90;0.80;;;11.30;97.30;;;;;;5016704;28;20456;-87
2023/12/26 06:08:13;;;;;;;0.90;0.80;;;11.40;97.30;;;;;;5013049;28;20444;-87
2023/12/26 06:10:39;;;;;;;0.90;0.80;;;11.40;97.30;;;;;;5014091;28;20475;-88
2023/12/26 06:13:04;;;;;;;0.90;0.80;;;11.30;97.30;;;;;;5023129;28;20824;-89
2023/12/26 06:15:30;;;;;;;0.80;0.70;;;11.30;97.30;;;;;;5016494;28;20201;-89
2023/12/26 06:17:58;;;;;;;0.80;0.70;;;11.30;97.30;;;;;;5016241;28;20189;-89
2023/12/26 06:20:26;;;;;;;0.80;0.70;;;11.30;97.30;;;;;;5020082;28;20188;-88
2023/12/26 06:22:52;;;;;;;1.00;0.90;;;11.30;97.30;;;;;;5020422;28;20486;-88
2023/12/26 06:25:17;;;;;;;0.90;0.80;;;11.30;97.30;;;;;;5016781;28;20427;-88
2023/12/26 06:27:43;;;;;;;1.07;0.97;;;11.20;97.30;;;;;;5011406;28;20268;-88
2023/12/26 06:30:10;;;;;;;0.80;0.70;;;11.20;97.30;;;;;;5011094;28;20196;-88
2023/12/26 06:32:36;;;;;;;0.90;0.80;;;11.20;97.30;;;;;;5015599;28;20259;-89
2023/12/26 06:35:01;;;;;;;0.80;0.70;;;11.30;97.30;;;;;;5021460;28;20435;-88
2023/12/26 06:37:27;;;;;;;0.93;0.83;;;11.30;97.30;;;;;;5019015;28;20214;-87
2023/12/26 06:39:52;;;;;;;0.90;0.80;;;11.30;97.30;;;;;;5004890;28;20185;-87
2023/12/26 06:42:18;;;;;;;0.90;0.80;;;11.30;97.30;;;;;;5009012;28;20259;-88
2023/12/26 06:44:43;;;;;;;0.90;0.80;;;11.20;97.30;;;;;;5016214;28;20719;-89
2023/12/26 06:47:11;;;;;;;0.90;0.80;;;11.20;97.30;;;;;;5010833;28;20181;-88
2023/12/26 06:49:37;;;;;;;1.00;0.90;;;11.20;97.30;;;;;;5002494;28;20193;-90
2023/12/26 06:52:02;;;;;;;0.90;0.80;;;11.20;97.30;;;;;;5022072;28;20444;-88
2023/12/26 06:54:28;;;;;;;0.80;0.70;;;11.20;97.30;;;;;;5007656;28;20189;-88
2023/12/26 06:56:53;;;;;;;0.80;0.70;;;11.20;97.30;;;;;;5019245;28;20180;-89
2023/12/26 06:59:19;;;;;;;0.90;0.80;;;11.30;97.30;;;;;;5002463;28;20604;-86
2023/12/26 07:01:48;;;;;;;0.80;0.70;;;11.20;97.30;;;;;;5005871;28;20237;-88
2023/12/26 07:04:14;;;;;;;0.90;0.80;;;11.20;97.30;;;;;;5007359;28;20294;-88
2023/12/26 07:06:39;;;;;;;0.97;0.87;;;11.20;97.30;;;;;;5006658;28;20841;-88
2023/12/26 07:09:05;;;;;;;0.90;0.80;;;11.30;97.30;;;;;;5010344;28;20188;-87
2023/12/26 07:11:30;;;;;;;0.90;0.80;;;11.20;97.30;;;;;;5010667;28;20212;-88
2023/12/26 07:13:56;;;;;;;0.80;0.70;;;11.30;97.30;;;;;;5005684;28;20213;-87
2023/12/26 07:16:21;;;;;;;0.97;0.87;;;11.20;97.30;;;;;;5009344;28;20216;-88
2023/12/26 07:18:47;;;;;;;0.90;0.80;;;11.30;97.30;;;;;;5002124;28;20185;-88
2023/12/26 07:21:16;;;;;;;0.90;0.80;;;11.20;97.30;;;;;;5006038;28;20205;-89
2023/12/26 07:23:44;;;;;;;1.00;0.90;;;11.20;97.30;;;;;;5010778;28;20459;-88
2023/12/26 07:26:10;;;;;;;0.90;0.80;;;11.20;97.30;;;;;;5012112;28;20416;-88
2023/12/26 07:28:36;;;;;;;0.93;0.87;;;11.20;97.30;;;;;;4998937;28;20471;-88
2023/12/26 07:31:01;;;;;;;0.90;0.80;;;11.20;97.30;;;;;;5006004;28;20704;-88
2023/12/26 07:33:27;;;;;;;0.83;0.73;;;11.20;97.30;;;;;;5006346;28;20212;-89
2023/12/26 07:35:57;;;;;;;0.90;0.80;;;11.30;97.30;;;;;;5006767;28;20181;-88
2023/12/26 07:38:26;;;;;;;1.00;0.90;;;11.20;97.30;;;;;;5011501;28;20208;-89
2023/12/26 07:40:51;;;;;;;0.90;0.80;;;11.20;97.30;;;;;;5000847;28;20479;-88
2023/12/26 07:43:17;;;;;;;0.90;0.80;;;11.20;97.30;;;;;;5007362;28;20499;-89
2023/12/26 07:45:43;;;;;;;0.87;0.77;;;11.20;97.30;;;;;;5006181;28;20189;-89
2023/12/26 07:48:10;;;;;;;0.83;0.73;;;11.20;97.30;;;;;;5010859;28;20579;-88
2023/12/26 07:50:36;;;;;;;0.80;0.70;;;11.20;97.30;;;;;;5007520;28;20415;-89
2023/12/26 07:53:01;;;;;;;2.30;1.20;;;11.20;97.30;;;;;;5007399;28;20817;-90
2023/12/26 07:55:29;;;;;;;1.10;1.00;;;11.20;97.30;;;;;;5006466;28;20188;-88
2023/12/26 07:57:54;;;;;;;1.03;0.93;;;11.20;97.30;;;;;;5003193;28;20267;-87
2023/12/26 08:00:20;;;;;;;0.90;0.80;;;11.20;97.30;;;;;;5000693;28;20586;-87
2023/12/26 08:02:45;;;;;;;1.00;0.90;;;11.20;97.30;;;;;;5002894;28;20315;-87
2023/12/26 08:05:11;;;;;;;1.20;1.10;;;11.20;97.30;;;;;;5005041;28;20668;-88
2023/12/26 08:07:37;;;;;;;0.90;0.80;;;11.20;97.30;;;;;;5013850;28;20191;-88
2023/12/26 08:10:02;;;;;;;1.00;0.90;;;11.20;97.30;;;;;;5008236;28;20178;-88
2023/12/26 08:12:28;;;;;;;0.97;0.87;;;11.20;97.30;;;;;;5017449;28;20205;-88
2023/12/26 08:14:53;;;;;;;1.30;1.20;;;11.20;97.30;;;;;;5017398;28;20254;-87
2023/12/26 08:17:19;;;;;;;0.87;0.77;;;11.20;97.30;;;;;;5024986;28;20185;-87
2023/12/26 08:19:44;;;;;;;0.90;0.80;;;11.20;97.30;;;;;;5016688;28;20208;-86
2023/12/26 08:22:10;;;;;;;0.90;0.80;;;11.20;97.30;;;;;;5022301;28;20212;-87
2023/12/26 08:24:35;;;;;;;0.87;0.77;;;11.20;97.30;;;;;;5018645;28;20212;-88
2023/12/26 08:27:01;;;;;;;0.90;0.80;;;11.10;97.30;;;;;;5009466;28;20554;-88
2023/12/26 08:29:26;;;;;;;1.00;0.90;;;11.20;97.30;;;;;;5015297;28;20181;-88
2023/12/26 08:31:53;;;;;;;1.33;1.33;;;11.20;97.30;;;;;;5021213;28;20201;-88
2023/12/26 08:34:19;;;;;;;1.00;0.90;;;11.20;97.30;;;;;;5020291;28;20181;-88
2023/12/26 08:36:45;;;;;;;1.00;0.90;;;11.20;97.30;;;;;;5024418;28;20992;-88
2023/12/26 08:39:10;;;;;;;0.90;0.80;;;11.20;97.30;;;;;;5016697;28;20524;-87
2023/12/26 08:41:36;;;;;;;1.53;1.03;;;11.20;97.30;;;;;;5021218;28;20204;-88
2023/12/26 08:44:01;;;;;;;0.90;0.80;;;11.10;97.30;;;;;;5021263;28;20204;-87
2023/12/26 08:46:27;;;;;;;1.00;0.90;;;10.90;97.30;;;;;;5023536;28;20173;-89
2023/12/26 08:48:52;;;;;;;0.90;0.80;;;10.80;97.30;;;;;;5015732;28;20188;-88
2023/12/26 08:51:19;;;;;;;1.00;0.90;;;10.70;97.30;;;;;;5019571;28;20223;-89
2023/12/26 08:53:47;;;;;;;0.80;0.70;;;10.70;97.30;;;;;;5017028;28;20540;-87
2023/12/26 08:56:13;;;;;;;0.90;0.80;;;10.70;97.30;;;;;;5006263;28;20490;-87
2023/12/26 08:58:38;;;;;;;0.80;0.70;;;10.60;97.30;;;;;;5008300;28;20455;-88
2023/12/26 09:01:04;;;;;;;0.90;0.80;;;10.50;97.30;;;;;;5007973;28;20561;-89
2023/12/26 09:03:29;;;;;;;1.17;1.07;;;10.40;97.30;;;;;;5012606;28;20710;-88
2023/12/26 09:05:55;;;;;;;1.20;1.00;;;10.30;97.30;;;;;;5015251;28;20183;-89
2023/12/26 09:08:20;;;;;;;0.80;0.70;;;10.30;97.30;;;;;;5011666;28;20412;-87
2023/12/26 09:10:46;;;;;;;0.90;0.80;;;10.20;97.30;;;;;;5007049;28;20192;-89
2023/12/26 09:13:11;;;;;;;0.90;0.80;;;10.20;97.30;;;;;;5011673;28;20247;-88
2023/12/26 09:15:37;;;;;;;0.90;0.80;;;10.20;97.30;;;;;;5019097;28;20229;-89
2023/12/26 09:18:03;;;;;;;3.90;3.23;;;10.30;97.30;;;;;;5020227;28;20642;-90
2023/12/26 09:20:29;;;;;;;1.20;1.10;;;10.30;97.30;;;;;;5014945;28;20268;-89
2023/12/26 09:22:54;;;;;;;0.93;0.83;;;10.30;97.30;;;;;;5015214;28;20515;-90
2023/12/26 09:25:20;;;;;;;1.10;0.80;;;10.40;97.30;;;;;;5020401;28;20180;-89
2023/12/26 09:27:45;;;;;;;0.90;0.80;;;10.40;97.30;;;;;;5008985;28;20231;-89
2023/12/26 09:30:11;;;;;;;0.90;0.80;;;10.50;97.30;;;;;;5020049;28;20181;-89
2023/12/26 09:32:37;;;;;;;0.90;0.80;;;10.50;97.30;;;;;;5026941;28;20270;-89
2023/12/26 09:35:03;;;;;;;1.27;1.17;;;10.50;97.30;;;;;;5020024;28;20969;-89
2023/12/26 09:37:28;;;;;;;1.20;1.10;;;10.50;97.30;;;;;;5020957;28;20528;-88
2023/12/26 09:39:54;;;;;;;1.33;1.23;;;10.50;97.30;;;;;;5016768;28;20829;-88
2023/12/26 09:42:23;;;;;;;0.90;0.80;;;10.50;97.30;;;;;;5008164;28;20207;-89
2023/12/26 09:44:49;;;;;;;1.13;1.03;;;10.50;97.30;;;;;;5014176;28;20208;-88
2023/12/26 09:47:16;;;;;;;1.00;0.90;;;10.50;97.30;;;;;;5020121;28;20420;-88
2023/12/26 09:49:43;;;;;;;0.90;0.80;;;10.50;97.30;;;;;;5014393;28;20644;-88
2023/12/26 09:52:09;;;;;;;0.97;0.87;;;10.60;97.30;;;;;;5015025;28;20958;-88
2023/12/26 09:54:38;;;;;;;1.20;1.10;;;10.60;97.30;;;;;;5012497;28;20589;-88
2023/12/26 09:57:06;;;;;;;1.00;0.90;;;10.50;97.30;;;;;;5020870;28;20199;-88
2023/12/26 09:59:34;;;;;;;0.90;0.80;;;10.50;97.30;;;;;;5011306;28;20684;-89
2023/12/26 10:02:00;;;;;;;0.90;0.80;;;10.60;97.30;;;;;;5013027;28;20510;-90
2023/12/26 10:04:26;;;;;;;1.30;1.20;;;10.60;97.30;;;;;;5020514;28;20996;-88
2023/12/26 10:06:52;;;;;;;0.90;0.80;;;10.60;97.30;;;;;;5017596;28;20177;-90
2023/12/26 10:09:19;;;;;;;1.00;0.90;;;10.60;97.30;;;;;;5014930;28;20510;-88
2023/12/26 10:11:45;;;;;;;0.90;0.80;;;10.70;97.30;;;;;;5020386;28;20463;-87
2023/12/26 10:14:10;;;;;;;1.93;1.20;;;10.70;97.30;;;;;;5007054;28;20431;-89
2023/12/26 10:16:36;;;;;;;0.90;0.80;;;10.80;97.30;;;;;;5015614;28;20446;-89
2023/12/26 10:19:01;;;;;;;49.27;1.67;;;10.90;97.30;;;;;;5022332;28;20195;-86
2023/12/26 10:21:27;;;;;;;1.00;0.90;;;11.00;97.30;;;;;;5007817;28;20205;-87
2023/12/26 10:23:55;;;;;;;1.00;0.90;;;11.10;97.30;;;;;;5015831;28;20201;-89
2023/12/26 10:26:22;;;;;;;1.10;1.00;;;11.10;97.30;;;;;;5021600;28;20408;-88
2023/12/26 10:28:50;;;;;;;0.90;0.80;;;11.10;97.30;;;;;;5008773;28;20945;-88
2023/12/26 10:31:19;;;;;;;1.10;1.00;;;11.10;97.30;;;;;;5006901;28;20491;-89
2023/12/26 10:33:45;;;;;;;0.90;0.80;;;11.20;97.30;;;;;;5014158;28;20498;-90
2023/12/26 10:36:11;;;;;;;1.00;0.90;;;11.20;97.30;;;;;;5015806;28;20833;-90
2023/12/26 10:38:40;;;;;;;0.80;0.70;;;11.20;97.30;;;;;;5020400;28;20198;-89
2023/12/26 10:41:32;;;;;;;0.90;0.80;;;11.20;97.30;;;;;;5014781;28;20451;-90
2023/12/26 10:43:59;;;;;;;0.90;0.80;;;11.20;97.30;;;;;;5012753;28;20503;-89
2023/12/26 10:46:25;;;;;;;1.03;0.90;;;11.20;97.30;;;;;;5016195;28;20470;-89
2023/12/26 10:48:53;;;;;;;1.10;1.00;;;11.10;97.30;;;;;;5007424;28;20432;-88
2023/12/26 10:51:25;;;;;;;0.90;0.80;;;11.10;97.30;;;;;;5010134;28;20518;-88
2023/12/26 10:53:59;;;;;;;1.00;0.90;;;11.10;97.30;;;;;;5016970;28;20423;-89
2023/12/26 10:56:26;;;;;;;0.90;0.80;;;11.00;97.30;;;;;;5008951;28;20412;-88
2023/12/26 10:58:53;;;;;;;0.90;0.80;;;11.00;97.30;;;;;;5009218;28;20424;-88
2023/12/26 11:01:19;;;;;;;1.00;0.90;;;11.00;97.30;;;;;;5008384;28;21012;-89
2023/12/26 11:03:44;;;;;;;1.00;0.90;;;11.00;97.30;;;;;;5017103;28;20463;-88
2023/12/26 11:06:10;;;;;;;0.90;0.80;;;10.90;97.30;;;;;;5008583;28;20178;-88
2023/12/26 11:08:36;;;;;;;1.00;0.90;;;10.90;97.30;;;;;;5010643;28;20188;-88
2023/12/26 11:11:01;;;;;;;1.17;1.00;;;10.90;97.30;;;;;;5010380;28;20448;-87
2023/12/26 11:13:27;;;;;;;1.83;1.73;;;10.90;97.30;;;;;;5001742;28;20181;-87
2023/12/26 11:15:54;;;;;;;1.00;0.90;;;10.80;97.30;;;;;;4999997;28;20181;-88
2023/12/26 11:18:21;;;;;;;1.00;0.90;;;10.90;97.30;;;;;;5007752;28;20643;-86
2023/12/26 11:20:46;;;;;;;0.90;0.80;;;11.00;97.30;;;;;;5007645;28;20492;-87
2023/12/26 11:23:12;;;;;;;0.80;0.70;;;11.10;97.30;;;;;;5005622;28;21009;-86
2023/12/26 11:25:37;;;;;;;1.10;1.00;;;11.10;97.30;;;;;;5009491;28;20193;-88
2023/12/26 11:28:03;;;;;;;1.00;0.90;;;11.00;97.30;;;;;;5017502;28;20558;-87
2023/12/26 11:30:29;;;;;;;0.90;0.80;;;11.00;97.30;;;;;;5021912;28;20181;-87
2023/12/26 11:32:55;;;;;;;1.00;0.90;;;11.00;97.30;;;;;;5009986;28;20193;-88
2023/12/26 11:35:21;;;;;;;3.07;2.87;;;11.00;97.30;;;;;;5016425;28;20969;-87
2023/12/26 11:37:48;;;;;;;1.00;0.90;;;11.00;97.30;;;;;;5014958;28;20486;-87
2023/12/26 11:40:14;;;;;;;0.90;0.80;;;11.00;97.30;;;;;;5014415;28;20267;-88
2023/12/26 11:42:39;;;;;;;1.13;1.03;;;11.10;97.00;;;;;;5002071;28;20924;-88
2023/12/26 11:45:05;;;;;;;0.90;0.80;;;11.20;96.70;;;;;;5002863;28;20752;-89
2023/12/26 11:47:30;;;;;;;1.20;1.10;;;11.20;96.50;;;;;;5002525;28;20180;-88
2023/12/26 11:49:56;;;;;;;1.00;0.90;;;11.20;97.30;;;;;;5009128;28;20181;-87
2023/12/26 11:52:21;;;;;;;1.90;1.10;;;11.10;97.30;;;;;;5004990;28;20606;-87
2023/12/26 11:54:47;;;;;;;1.57;1.50;;;11.10;97.30;;;;;;5008476;28;20203;-88
2023/12/26 11:57:12;;;;;;;1.00;0.90;;;11.10;97.30;;;;;;5003734;28;20185;-89
2023/12/26 11:59:38;;;;;;;1.83;1.73;;;11.30;97.30;;;;;;5008123;28;20182;-87
2023/12/26 12:02:04;;;;;;;0.90;0.80;;;11.50;97.30;;;;;;5001305;28;20244;-88
2023/12/26 12:04:29;;;;;;;0.90;0.80;;;11.50;96.90;;;;;;5004341;28;20208;-87
2023/12/26 12:07:14;;;;;;;0.90;0.80;;;11.70;96.30;;;;;;5009525;28;20224;-88
2023/12/26 12:09:39;;;;;;;5.43;1.27;;;12.10;95.20;;;;;;5012359;28;20187;-88
2023/12/26 12:12:05;;;;;;;0.90;0.80;;;12.30;94.20;;;;;;5007413;28;20547;-89
2023/12/26 12:14:30;;;;;;;1.20;1.10;;;12.50;94.10;;;;;;5005929;28;20177;-90
2023/12/26 12:17:11;;;;;;;11.00;3.03;;;12.40;94.00;;;;;;4999363;28;20711;-88
2023/12/26 12:19:37;;;;;;;0.97;0.87;;;12.60;93.50;;;;;;5005643;28;20193;-89
2023/12/26 12:22:02;;;;;;;1.00;0.90;;;12.50;93.60;;;;;;5003234;28;20449;-87
2023/12/26 12:24:29;;;;;;;2.70;1.73;;;12.40;93.70;;;;;;5006535;28;20452;-86
2023/12/26 12:27:03;;;;;;;0.90;0.80;;;12.30;94.50;;;;;;5027416;28;20280;-87
2023/12/26 12:29:58;;;;;;;1.00;0.90;;;12.70;95.00;;;;;;5004895;28;20432;-88
2023/12/26 12:32:30;;;;;;;0.87;0.77;;;;;;;;;;5002912;28;20984;-88
2023/12/26 12:35:16;;;;;;;1.50;1.40;;;12.20;94.00;;;;;;5004099;28;21029;-89
2023/12/26 12:37:42;;;;;;;1.13;1.03;;;12.40;94.00;;;;;;5006581;28;20432;-88
2023/12/26 12:40:08;;;;;;;1.00;0.97;;;12.30;93.90;;;;;;5003384;28;20671;-87
2023/12/26 12:42:34;;;;;;;0.90;0.80;;;12.30;93.80;;;;;;5009504;28;20452;-89
2023/12/26 12:45:01;;;;;;;1.00;0.90;;;12.50;94.20;;;;;;5009288;28;20762;-88
2023/12/26 12:47:27;;;;;;;1.23;1.13;;;12.60;93.30;;;;;;5009456;28;20420;-88
2023/12/26 12:49:54;;;;;;;0.90;0.80;;;12.40;93.40;;;;;;5006558;28;21023;-88
2023/12/26 12:52:20;;;;;;;1.23;1.13;;;12.30;93.10;;;;;;5001598;28;20201;-88
2023/12/26 12:54:45;;;;;;;1.30;1.20;;;12.20;93.30;;;;;;5012533;28;20717;-88
2023/12/26 12:57:11;;;;;;;1.90;1.37;;;11.80;93.20;;;;;;4998898;28;20541;-86
2023/12/26 12:59:36;;;;;;;1.10;1.00;;;11.70;94.00;;;;;;5007774;28;20264;-89
2023/12/26 13:02:04;;;;;;;2.60;1.60;;;11.50;94.30;;;;;;5016286;28;20236;-87
2023/12/26 13:04:30;;;;;;;1.10;1.00;;;11.40;94.30;;;;;;5011676;28;20209;-87
2023/12/26 13:06:55;;;;;;;1.00;0.90;;;11.30;94.50;;;;;;5017481;28;20415;-86
2023/12/26 13:09:21;;;;;;;2.53;2.23;;;11.10;93.40;;;;;;5020383;28;20558;-87
2023/12/26 13:11:46;;;;;;;1.87;1.77;;;10.90;93.80;;;;;;5008984;28;20676;-86
2023/12/26 13:14:16;;;;;;;0.90;0.80;;;10.80;94.30;;;;;;5015102;28;20203;-86
2023/12/26 13:16:42;;;;;;;1.50;1.40;;;10.70;94.50;;;;;;5011016;28;20273;-87
2023/12/26 13:19:09;;;;;;;0.90;0.80;;;10.60;94.90;;;;;;5012167;28;20447;-86
2023/12/26 13:21:34;;;;;;;1.13;1.03;;;10.50;94.80;;;;;;5012476;28;20290;-86
2023/12/26 13:24:00;;;;;;;1.30;1.20;;;10.50;95.10;;;;;;5013229;28;20904;-86
2023/12/26 13:26:25;;;;;;;0.80;0.70;;;10.60;95.50;;;;;;5014072;28;20182;-86
2023/12/26 13:28:51;;;;;;;2.03;1.17;;;10.90;95.10;;;;;;5009309;28;20173;-87
2023/12/26 13:31:16;;;;;;;1.10;1.00;;;11.10;94.50;;;;;;5003103;28;20201;-87
2023/12/26 13:33:42;;;;;;;0.87;0.80;;;11.20;93.70;;;;;;5002040;28;20804;-88
2023/12/26 13:36:07;;;;;;;1.27;1.20;;;11.10;93.80;;;;;;5000974;28;20185;-88
2023/12/26 13:38:33;;;;;;;1.00;0.90;;;11.00;94.10;;;;;;5006290;28;20181;-88
2023/12/26 13:40:59;;;;;;;0.97;0.90;;;10.70;94.80;;;;;;5007575;28;20213;-88
2023/12/26 13:43:24;;;;;;;1.27;1.17;;;10.60;95.20;;;;;;5009895;28;20378;-87
2023/12/26 13:45:49;;;;;;;0.90;0.80;;;10.70;95.40;;;;;;5013634;28;20281;-91
2023/12/26 13:48:15;;;;;;;1.57;1.47;;;10.70;95.10;;;;;;5011059;28;20176;-87
2023/12/26 13:50:40;;;;;;;1.00;0.90;;;10.70;95.20;;;;;;5012489;28;20578;-88
2023/12/26 13:53:06;;;;;;;1.00;0.90;;;10.70;94.90;;;;;;5003183;28;20178;-88
2023/12/26 13:55:31;;;;;;;1.23;0.90;;;10.50;95.10;;;;;;5008087;28;20627;-89
2023/12/26 13:57:57;;;;;;;1.00;0.90;;;10.40;95.50;;;;;;5010566;28;20177;-86
2023/12/26 14:00:22;;;;;;;0.90;0.80;;;10.30;95.40;;;;;;5009186;28;20186;-87
2023/12/26 14:02:48;;;;;;;0.90;0.80;;;10.20;96.10;;;;;;5007759;28;20225;-86
2023/12/26 14:05:13;;;;;;;1.03;0.93;;;10.10;96.60;;;;;;5007379;28;20215;-86
2023/12/26 14:07:39;;;;;;;1.07;0.97;;;10.00;97.20;;;;;;5009289;28;20169;-89
2023/12/26 14:10:05;;;;;;;1.20;1.10;;;9.90;97.30;;;;;;5009735;28;20176;-89
2023/12/26 14:12:30;;;;;;;1.10;1.00;;;9.90;97.20;;;;;;5009731;28;20291;-86
2023/12/26 14:14:55;;;;;;;0.90;0.80;;;10.00;96.30;;;;;;5011199;28;20185;-89
2023/12/26 14:17:21;;;;;;;1.00;0.90;;;10.00;96.40;;;;;;5008687;28;20622;-87
2023/12/26 14:19:46;;;;;;;0.90;0.80;;;9.90;96.50;;;;;;5017436;28;20180;-87
2023/12/26 14:22:12;;;;;;;1.00;0.90;;;10.00;95.60;;;;;;5016446;28;20201;-87
2023/12/26 14:24:38;;;;;;;1.00;0.90;;;10.00;95.50;;;;;;5019889;28;20288;-86
2023/12/26 14:27:05;;;;;;;1.00;0.90;;;10.00;95.30;;;;;;5019541;28;20184;-87
2023/12/26 14:29:31;;;;;;;1.47;1.37;;;10.30;94.40;;;;;;5031030;28;20177;-87
2023/12/26 14:31:56;;;;;;;1.00;0.90;;;10.60;93.10;;;;;;5013259;28;20455;-87
2023/12/26 14:34:22;;;;;;;0.90;0.80;;;10.70;92.70;;;;;;5009454;28;20220;-87
2023/12/26 14:36:48;;;;;;;1.20;1.10;;;10.60;92.90;;;;;;5011501;28;20244;-84
2023/12/26 14:39:13;;;;;;;1.60;1.50;;;10.50;93.60;;;;;;5016363;28;20182;-87
2023/12/26 14:41:39;;;;;;;1.73;1.63;;;10.40;93.50;;;;;;5016813;28;20847;-87
2023/12/26 14:44:04;;;;;;;1.10;1.00;;;10.30;93.70;;;;;;5016814;28;20291;-87
2023/12/26 14:46:30;;;;;;;1.53;1.27;;;10.20;94.00;;;;;;5017258;28;20179;-86
2023/12/26 14:48:56;;;;;;;1.03;0.93;;;10.10;94.10;;;;;;5015034;28;20212;-85
2023/12/26 14:51:22;;;;;;;1.00;0.90;;;10.00;94.60;;;;;;5015136;28;20491;-88
2023/12/26 14:53:47;;;;;;;2.73;1.20;;;9.90;94.90;;;;;;5009998;28;20185;-87
2023/12/26 14:56:13;;;;;;;19.03;1.37;;;9.90;95.10;;;;;;5008914;28;20444;-88
2023/12/26 14:58:38;;;;;;;1.00;0.90;;;9.80;95.40;;;;;;5010865;28;20177;-88
2023/12/26 15:01:04;;;;;;;1.10;1.00;;;9.80;95.80;;;;;;5010061;28;20251;-88
2023/12/26 15:03:29;;;;;;;16.27;3.00;;;9.80;96.10;;;;;;5010923;28;20216;-89
2023/12/26 15:05:55;;;;;;;0.90;0.80;;;9.70;96.40;;;;;;5015456;28;20188;-87
2023/12/26 15:08:21;;;;;;;0.90;0.80;;;9.70;96.50;;;;;;5019184;28;20173;-89
2023/12/26 15:10:46;;;;;;;1.00;0.90;;;9.70;96.80;;;;;;5012786;28;20201;-86
2023/12/26 15:13:15;;;;;;;1.00;0.90;;;9.70;97.00;;;;;;5004834;28;20190;-86
2023/12/26 15:15:40;;;;;;;0.90;0.80;;;9.60;97.20;;;;;;5010425;28;20276;-86
2023/12/26 15:18:06;;;;;;;1.77;1.67;;;9.60;97.30;;;;;;5019150;28;20855;-87
2023/12/26 15:20:31;;;;;;;1.00;0.90;;;9.50;97.30;;;;;;5016756;28;20231;-85
2023/12/26 15:22:57;;;;;;;1.27;1.17;;;9.50;97.30;;;;;;5014735;28;20612;-87
2023/12/26 15:25:22;;;;;;;1.20;1.10;;;9.50;97.30;;;;;;5019822;28;20252;-86
2023/12/26 15:27:48;;;;;;;3.40;1.07;;;9.50;97.30;;;;;;5027190;28;20696;-85
2023/12/26 15:30:14;;;;;;;1.50;1.50;;;9.50;97.30;;;;;;5010699;28;20208;-86
2023/12/26 15:32:39;;;;;;;1.43;1.33;;;9.50;97.30;;;;;;5025875;28;20446;-85
2023/12/26 15:35:05;;;;;;;1.37;1.30;;;9.50;97.30;;;;;;5024373;28;20185;-86
2023/12/26 15:37:32;;;;;;;1.03;0.93;;;9.40;97.30;;;;;;5023505;28;20180;-86
2023/12/26 15:39:57;;;;;;;1.83;1.73;;;9.40;97.30;;;;;;5021521;28;20427;-86
2023/12/26 15:42:23;;;;;;;11.17;1.53;;;9.40;97.30;;;;;;5021435;28;20435;-86
2023/12/26 15:44:48;;;;;;;1.00;0.90;;;9.40;97.30;;;;;;5030148;28;20731;-85
2023/12/26 15:47:14;;;;;;;2.30;2.10;;;9.40;97.10;;;;;;5022167;28;20877;-86
2023/12/26 15:49:40;;;;;;;1.27;1.17;;;9.40;97.00;;;;;;5017046;28;20184;-87
2023/12/26 15:52:05;;;;;;;25.67;1.93;;;9.40;96.90;;;;;;5020140;28;20633;-85
2023/12/26 15:54:31;;;;;;;2.20;1.33;;;9.40;96.40;;;;;;5016291;28;20182;-87
2023/12/26 15:56:57;;;;;;;1.00;0.90;;;9.40;96.00;;;;;;5019317;28;20189;-86
2023/12/26 15:59:22;;;;;;;1.00;0.90;;;9.40;94.90;;;;;;5010707;28;20177;-86
2023/12/26 16:01:47;;;;;;;1.00;0.90;;;9.40;95.30;;;;;;5016652;28;20239;-86
2023/12/26 16:04:14;;;;;;;1.03;0.93;;;9.30;95.10;;;;;;5014249;28;20223;-86
2023/12/26 16:06:40;;;;;;;1.50;1.40;;;9.20;94.80;;;;;;5021946;28;20195;-86
2023/12/26 16:09:06;;;;;;;1.10;1.00;;;9.20;94.10;;;;;;5026917;28;20518;-87
2023/12/26 16:11:34;;;;;;;1.27;1.20;;;9.20;93.90;;;;;;5019041;28;20450;-85
2023/12/26 16:14:00;;;;;;;1.00;0.90;;;9.10;93.00;;;;;;5018302;28;20454;-87
2023/12/26 16:16:25;;;;;;;1.33;1.20;;;9.20;92.00;;;;;;5015208;28;20478;-86
2023/12/26 16:18:51;;;;;;;1.47;1.37;;;9.20;92.00;;;;;;5014340;28;20177;-86
2023/12/26 16:21:17;;;;;;;0.90;0.80;;;9.20;91.90;;;;;;5018292;28;20201;-86
2023/12/26 16:23:42;;;;;;;0.90;0.80;;;9.20;91.60;;;;;;5026002;28;20196;-85
2023/12/26 16:26:08;;;;;;;1.63;1.53;;;9.10;91.30;;;;;;5011182;28;20540;-85
2023/12/26 16:28:35;;;;;;;1.30;1.30;;;9.10;91.20;;;;;;5015565;28;20176;-85
2023/12/26 16:31:04;;;;;;;1.13;1.03;;;9.20;91.00;;;;;;5026022;28;20212;-85
2023/12/26 16:33:31;;;;;;;8.03;1.40;;;9.20;90.70;;;;;;5015033;28;20861;-85
2023/12/26 16:35:56;;;;;;;1.23;1.13;;;9.10;90.70;;;;;;5022695;28;20519;-86
2023/12/26 16:38:23;;;;;;;1.33;1.00;;;9.10;90.70;;;;;;5016859;28;20524;-86
2023/12/26 16:40:49;;;;;;;0.90;0.80;;;9.10;90.90;;;;;;5024400;28;20266;-86
2023/12/26 16:43:14;;;;;;;1.00;0.90;;;9.10;91.40;;;;;;5029017;28;20439;-87
2023/12/26 16:45:40;;;;;;;0.90;0.80;;;8.90;91.70;;;;;;5021174;28;20192;-85
2023/12/26 16:48:07;;;;;;;11.63;1.83;;;8.90;91.80;;;;;;5011675;28;20177;-85
2023/12/26 16:50:33;;;;;;;1.30;1.20;;;8.90;92.40;;;;;;5019203;28;20170;-85
2023/12/26 16:52:59;;;;;;;0.90;0.80;;;8.80;92.60;;;;;;5025302;28;21024;-85
2023/12/26 16:55:24;;;;;;;3.00;0.97;;;8.80;93.00;;;;;;5014311;28;20502;-85
2023/12/26 16:57:50;;;;;;;1.20;1.10;;;8.80;93.30;;;;;;5028053;28;20172;-85
2023/12/26 17:00:16;;;;;;;1.17;1.07;;;8.70;93.50;;;;;;5016903;28;20235;-85
2023/12/26 17:02:41;;;;;;;1.00;0.90;;;8.80;93.60;;;;;;5011274;28;20224;-87
2023/12/26 17:05:07;;;;;;;0.90;0.80;;;8.80;93.60;;;;;;5019096;28;20227;-84
2023/12/26 17:07:33;;;;;;;0.90;0.80;;;8.90;93.80;;;;;;5026890;28;20270;-86
2023/12/26 17:09:59;;;;;;;1.17;1.07;;;9.00;93.40;;;;;;5019445;28;20211;-86
2023/12/26 17:12:24;;;;;;;1.40;1.30;;;9.00;93.50;;;;;;5020867;28;20434;-87
2023/12/26 17:14:50;;;;;;;0.90;0.80;;;9.00;93.50;;;;;;5020668;28;20310;-86
2023/12/26 17:17:15;;;;;;;1.10;1.00;;;9.00;93.50;;;;;;5009246;28;20584;-85
2023/12/26 17:19:41;;;;;;;1.00;0.90;;;9.00;93.30;;;;;;5022317;28;20176;-85
2023/12/26 17:22:10;;;;;;;0.90;0.80;;;9.00;93.40;;;;;;5023633;28;20213;-86
2023/12/26 17:24:38;;;;;;;1.17;1.07;;;9.00;93.20;;;;;;5014898;28;20224;-87
2023/12/26 17:27:05;;;;;;;1.00;0.90;;;9.00;92.90;;;;;;5019264;28;20411;-86
2023/12/26 17:29:33;;;;;;;1.20;1.10;;;9.00;92.70;;;;;;5019707;28;20446;-86
2023/12/26 17:31:59;;;;;;;1.10;1.00;;;9.00;92.90;;;;;;5024367;28;20444;-87
2023/12/26 17:34:26;;;;;;;0.90;0.80;;;9.00;92.70;;;;;;5022591;28;20438;-87
2023/12/26 17:36:52;;;;;;;1.00;0.90;;;9.00;92.80;;;;;;5021790;28;20841;-86
2023/12/26 17:39:20;;;;;;;0.90;0.90;;;9.00;92.40;;;;;;5019210;28;21158;-86
2023/12/26 17:41:45;;;;;;;1.50;1.40;;;9.00;92.50;;;;;;5028715;28;20436;-86
2023/12/26 17:44:11;;;;;;;1.10;1.00;;;9.10;92.30;;;;;;5014477;28;20512;-86
2023/12/26 17:46:38;;;;;;;1.07;0.97;;;9.10;92.30;;;;;;5019905;28;20180;-86